sensor_id;sensor_type;location;lat;lon;timestamp;P1;durP1;ratioP1;P2;durP2;ratioP2
57107;SDS011;42987;52.916;6.542;2024-01-27T00:01:59;29.67;;;6.18;;
57107;SDS011;42987;52.916;6.542;2024-01-27T00:04:25;28.77;;;5.78;;
57107;SDS011;42987;52.916;6.542;2024-01-27T00:06:50;27.02;;;5.63;;
57107;SDS011;42987;52.916;6.542;2024-01-27T00:09:16;25.15;;;5.68;;
57107;SDS011;42987;52.916;6.542;2024-01-27T00:11:42;28.10;;;5.88;;
57107;SDS011;42987;52.916;6.542;2024-01-27T00:14:08;25.05;;;5.72;;
57107;SDS011;42987;52.916;6.542;2024-01-27T00:16:33;32.85;;;6.30;;
57107;SDS011;42987;52.916;6.542;2024-01-27T00:18:59;28.88;;;6.15;;
57107;SDS011;42987;52.916;6.542;2024-01-27T00:21:30;30.55;;;6.13;;
57107;SDS011;42987;52.916;6.542;2024-01-27T00:23:56;25.30;;;5.70;;
57107;SDS011;42987;52.916;6.542;2024-01-27T00:26:26;32.42;;;6.22;;
57107;SDS011;42987;52.916;6.542;2024-01-27T00:28:52;25.52;;;5.63;;
57107;SDS011;42987;52.916;6.542;2024-01-27T00:31:18;24.50;;;5.35;;
57107;SDS011;42987;52.916;6.542;2024-01-27T00:33:44;27.67;;;6.55;;
57107;SDS011;42987;52.916;6.542;2024-01-27T00:36:10;23.48;;;5.97;;
57107;SDS011;42987;52.916;6.542;2024-01-27T00:38:36;35.25;;;6.55;;
57107;SDS011;42987;52.916;6.542;2024-01-27T00:41:04;25.45;;;5.10;;
57107;SDS011;42987;52.916;6.542;2024-01-27T00:43:30;28.00;;;5.68;;
57107;SDS011;42987;52.916;6.542;2024-01-27T00:45:56;27.55;;;6.50;;
57107;SDS011;42987;52.916;6.542;2024-01-27T00:48:21;26.92;;;5.70;;
57107;SDS011;42987;52.916;6.542;2024-01-27T00:50:47;22.90;;;5.32;;
57107;SDS011;42987;52.916;6.542;2024-01-27T00:53:13;25.98;;;5.78;;
57107;SDS011;42987;52.916;6.542;2024-01-27T00:55:39;26.52;;;5.60;;
57107;SDS011;42987;52.916;6.542;2024-01-27T00:58:06;26.02;;;5.35;;
57107;SDS011;42987;52.916;6.542;2024-01-27T01:00:32;22.75;;;6.43;;
57107;SDS011;42987;52.916;6.542;2024-01-27T01:02:58;25.98;;;5.60;;
57107;SDS011;42987;52.916;6.542;2024-01-27T01:05:23;21.77;;;5.65;;
57107;SDS011;42987;52.916;6.542;2024-01-27T01:07:49;25.33;;;5.90;;
57107;SDS011;42987;52.916;6.542;2024-01-27T01:10:15;20.45;;;5.85;;
57107;SDS011;42987;52.916;6.542;2024-01-27T01:12:41;26.15;;;5.55;;
57107;SDS011;42987;52.916;6.542;2024-01-27T01:15:07;22.67;;;5.28;;
57107;SDS011;42987;52.916;6.542;2024-01-27T01:17:33;28.40;;;6.07;;
57107;SDS011;42987;52.916;6.542;2024-01-27T01:19:59;23.80;;;6.05;;
57107;SDS011;42987;52.916;6.542;2024-01-27T01:22:25;22.00;;;5.07;;
57107;SDS011;42987;52.916;6.542;2024-01-27T01:24:50;20.70;;;4.90;;
57107;SDS011;42987;52.916;6.542;2024-01-27T01:27:16;23.73;;;5.60;;
57107;SDS011;42987;52.916;6.542;2024-01-27T01:29:44;24.20;;;5.75;;
57107;SDS011;42987;52.916;6.542;2024-01-27T01:32:10;28.63;;;5.70;;
57107;SDS011;42987;52.916;6.542;2024-01-27T01:34:36;21.30;;;4.88;;
57107;SDS011;42987;52.916;6.542;2024-01-27T01:37:01;22.65;;;6.15;;
57107;SDS011;42987;52.916;6.542;2024-01-27T01:39:27;21.17;;;5.80;;
57107;SDS011;42987;52.916;6.542;2024-01-27T01:41:54;27.70;;;6.07;;
57107;SDS011;42987;52.916;6.542;2024-01-27T01:44:19;26.35;;;6.53;;
57107;SDS011;42987;52.916;6.542;2024-01-27T01:46:46;24.63;;;5.13;;
57107;SDS011;42987;52.916;6.542;2024-01-27T01:49:12;23.58;;;5.63;;
57107;SDS011;42987;52.916;6.542;2024-01-27T01:51:38;25.13;;;6.32;;
57107;SDS011;42987;52.916;6.542;2024-01-27T01:54:04;24.40;;;5.53;;
57107;SDS011;42987;52.916;6.542;2024-01-27T01:56:31;25.35;;;5.70;;
57107;SDS011;42987;52.916;6.542;2024-01-27T01:58:57;23.33;;;5.50;;
57107;SDS011;42987;52.916;6.542;2024-01-27T02:01:23;23.23;;;5.93;;
57107;SDS011;42987;52.916;6.542;2024-01-27T02:03:54;22.40;;;5.07;;
57107;SDS011;42987;52.916;6.542;2024-01-27T02:06:21;21.05;;;6.05;;
57107;SDS011;42987;52.916;6.542;2024-01-27T02:08:47;25.23;;;5.60;;
57107;SDS011;42987;52.916;6.542;2024-01-27T02:11:13;23.38;;;6.18;;
57107;SDS011;42987;52.916;6.542;2024-01-27T02:13:38;22.15;;;6.43;;
57107;SDS011;42987;52.916;6.542;2024-01-27T02:16:05;23.52;;;5.53;;
57107;SDS011;42987;52.916;6.542;2024-01-27T02:18:31;23.02;;;5.75;;
57107;SDS011;42987;52.916;6.542;2024-01-27T02:20:57;29.83;;;5.97;;
57107;SDS011;42987;52.916;6.542;2024-01-27T02:23:22;20.13;;;4.72;;
57107;SDS011;42987;52.916;6.542;2024-01-27T02:25:48;19.20;;;5.28;;
57107;SDS011;42987;52.916;6.542;2024-01-27T02:28:15;27.73;;;6.32;;
57107;SDS011;42987;52.916;6.542;2024-01-27T02:30:42;26.90;;;6.05;;
57107;SDS011;42987;52.916;6.542;2024-01-27T02:33:07;25.75;;;5.43;;
57107;SDS011;42987;52.916;6.542;2024-01-27T02:35:33;21.63;;;5.28;;
57107;SDS011;42987;52.916;6.542;2024-01-27T02:37:59;28.77;;;6.05;;
57107;SDS011;42987;52.916;6.542;2024-01-27T02:40:28;27.80;;;5.65;;
57107;SDS011;42987;52.916;6.542;2024-01-27T02:42:53;28.58;;;6.20;;
57107;SDS011;42987;52.916;6.542;2024-01-27T02:45:19;23.80;;;5.80;;
57107;SDS011;42987;52.916;6.542;2024-01-27T02:47:45;27.98;;;6.68;;
57107;SDS011;42987;52.916;6.542;2024-01-27T02:50:11;25.10;;;5.40;;
57107;SDS011;42987;52.916;6.542;2024-01-27T02:52:37;23.60;;;6.20;;
57107;SDS011;42987;52.916;6.542;2024-01-27T02:55:03;21.17;;;5.65;;
57107;SDS011;42987;52.916;6.542;2024-01-27T02:57:29;29.88;;;5.50;;
57107;SDS011;42987;52.916;6.542;2024-01-27T02:59:54;21.63;;;4.75;;
57107;SDS011;42987;52.916;6.542;2024-01-27T03:02:20;21.77;;;4.95;;
57107;SDS011;42987;52.916;6.542;2024-01-27T03:04:46;22.05;;;5.05;;
57107;SDS011;42987;52.916;6.542;2024-01-27T03:07:12;20.60;;;5.30;;
57107;SDS011;42987;52.916;6.542;2024-01-27T03:09:37;27.15;;;5.47;;
57107;SDS011;42987;52.916;6.542;2024-01-27T03:12:03;24.52;;;4.90;;
57107;SDS011;42987;52.916;6.542;2024-01-27T03:14:29;24.45;;;5.60;;
57107;SDS011;42987;52.916;6.542;2024-01-27T03:16:58;24.42;;;5.18;;
57107;SDS011;42987;52.916;6.542;2024-01-27T03:19:24;23.52;;;5.35;;
57107;SDS011;42987;52.916;6.542;2024-01-27T03:21:52;24.73;;;4.93;;
57107;SDS011;42987;52.916;6.542;2024-01-27T03:24:18;29.05;;;5.43;;
57107;SDS011;42987;52.916;6.542;2024-01-27T03:26:44;24.23;;;5.05;;
57107;SDS011;42987;52.916;6.542;2024-01-27T03:29:09;19.98;;;4.60;;
57107;SDS011;42987;52.916;6.542;2024-01-27T03:31:35;22.45;;;5.18;;
57107;SDS011;42987;52.916;6.542;2024-01-27T03:34:01;15.52;;;4.88;;
57107;SDS011;42987;52.916;6.542;2024-01-27T03:36:27;21.92;;;4.97;;
57107;SDS011;42987;52.916;6.542;2024-01-27T03:38:53;22.52;;;4.25;;
57107;SDS011;42987;52.916;6.542;2024-01-27T03:41:21;19.52;;;4.75;;
57107;SDS011;42987;52.916;6.542;2024-01-27T03:43:46;21.73;;;4.50;;
57107;SDS011;42987;52.916;6.542;2024-01-27T03:46:12;25.40;;;5.30;;
57107;SDS011;42987;52.916;6.542;2024-01-27T03:48:38;22.60;;;5.28;;
57107;SDS011;42987;52.916;6.542;2024-01-27T03:51:04;22.52;;;5.18;;
57107;SDS011;42987;52.916;6.542;2024-01-27T03:53:30;24.33;;;4.88;;
57107;SDS011;42987;52.916;6.542;2024-01-27T03:55:56;19.52;;;4.47;;
57107;SDS011;42987;52.916;6.542;2024-01-27T03:58:24;21.77;;;5.47;;
57107;SDS011;42987;52.916;6.542;2024-01-27T04:00:53;17.42;;;4.53;;
57107;SDS011;42987;52.916;6.542;2024-01-27T04:03:18;29.70;;;5.57;;
57107;SDS011;42987;52.916;6.542;2024-01-27T04:05:44;24.95;;;5.20;;
57107;SDS011;42987;52.916;6.542;2024-01-27T04:08:10;27.25;;;5.22;;
57107;SDS011;42987;52.916;6.542;2024-01-27T04:10:36;27.15;;;5.47;;
57107;SDS011;42987;52.916;6.542;2024-01-27T04:13:02;19.73;;;4.07;;
57107;SDS011;42987;52.916;6.542;2024-01-27T04:15:28;22.83;;;4.75;;
57107;SDS011;42987;52.916;6.542;2024-01-27T04:17:54;23.80;;;5.05;;
57107;SDS011;42987;52.916;6.542;2024-01-27T04:20:20;25.35;;;5.43;;
57107;SDS011;42987;52.916;6.542;2024-01-27T04:22:46;24.38;;;6.22;;
57107;SDS011;42987;52.916;6.542;2024-01-27T04:25:12;26.08;;;5.75;;
57107;SDS011;42987;52.916;6.542;2024-01-27T04:27:38;17.33;;;5.18;;
57107;SDS011;42987;52.916;6.542;2024-01-27T04:30:07;24.83;;;6.15;;
57107;SDS011;42987;52.916;6.542;2024-01-27T04:32:34;21.85;;;5.53;;
57107;SDS011;42987;52.916;6.542;2024-01-27T04:35:01;24.98;;;5.50;;
57107;SDS011;42987;52.916;6.542;2024-01-27T04:37:26;26.10;;;5.65;;
57107;SDS011;42987;52.916;6.542;2024-01-27T04:39:52;21.73;;;5.82;;
57107;SDS011;42987;52.916;6.542;2024-01-27T04:42:18;24.50;;;6.43;;
57107;SDS011;42987;52.916;6.542;2024-01-27T04:44:43;25.02;;;6.40;;
57107;SDS011;42987;52.916;6.542;2024-01-27T04:47:09;26.25;;;6.68;;
57107;SDS011;42987;52.916;6.542;2024-01-27T04:49:35;22.15;;;5.72;;
57107;SDS011;42987;52.916;6.542;2024-01-27T04:52:01;25.65;;;5.90;;
57107;SDS011;42987;52.916;6.542;2024-01-27T04:54:27;24.20;;;5.68;;
57107;SDS011;42987;52.916;6.542;2024-01-27T04:56:52;20.75;;;5.70;;
57107;SDS011;42987;52.916;6.542;2024-01-27T04:59:18;22.65;;;5.90;;
57107;SDS011;42987;52.916;6.542;2024-01-27T05:01:44;25.30;;;6.57;;
57107;SDS011;42987;52.916;6.542;2024-01-27T05:04:10;19.33;;;5.63;;
57107;SDS011;42987;52.916;6.542;2024-01-27T05:06:36;31.67;;;7.38;;
57107;SDS011;42987;52.916;6.542;2024-01-27T05:09:04;26.27;;;6.28;;
57107;SDS011;42987;52.916;6.542;2024-01-27T05:11:31;22.13;;;6.30;;
57107;SDS011;42987;52.916;6.542;2024-01-27T05:13:58;26.30;;;6.32;;
57107;SDS011;42987;52.916;6.542;2024-01-27T05:16:24;26.38;;;7.00;;
57107;SDS011;42987;52.916;6.542;2024-01-27T05:18:50;23.48;;;6.93;;
57107;SDS011;42987;52.916;6.542;2024-01-27T05:21:15;18.45;;;5.45;;
57107;SDS011;42987;52.916;6.542;2024-01-27T05:23:41;22.63;;;5.93;;
57107;SDS011;42987;52.916;6.542;2024-01-27T05:26:08;28.80;;;6.18;;
57107;SDS011;42987;52.916;6.542;2024-01-27T05:28:35;19.70;;;5.38;;
57107;SDS011;42987;52.916;6.542;2024-01-27T05:31:01;24.45;;;6.30;;
57107;SDS011;42987;52.916;6.542;2024-01-27T05:33:27;24.58;;;6.05;;
57107;SDS011;42987;52.916;6.542;2024-01-27T05:35:56;22.70;;;6.55;;
57107;SDS011;42987;52.916;6.542;2024-01-27T05:38:21;30.98;;;6.47;;
57107;SDS011;42987;52.916;6.542;2024-01-27T05:40:47;29.48;;;6.20;;
57107;SDS011;42987;52.916;6.542;2024-01-27T05:43:15;25.05;;;6.80;;
57107;SDS011;42987;52.916;6.542;2024-01-27T05:45:41;21.75;;;6.07;;
57107;SDS011;42987;52.916;6.542;2024-01-27T05:48:07;30.38;;;6.50;;
57107;SDS011;42987;52.916;6.542;2024-01-27T05:50:33;20.83;;;5.70;;
57107;SDS011;42987;52.916;6.542;2024-01-27T05:53:00;25.25;;;5.28;;
57107;SDS011;42987;52.916;6.542;2024-01-27T05:55:26;25.08;;;6.40;;
57107;SDS011;42987;52.916;6.542;2024-01-27T05:57:52;27.77;;;7.25;;
57107;SDS011;42987;52.916;6.542;2024-01-27T06:00:17;25.23;;;6.70;;
57107;SDS011;42987;52.916;6.542;2024-01-27T06:02:43;29.13;;;6.65;;
57107;SDS011;42987;52.916;6.542;2024-01-27T06:05:09;19.73;;;5.30;;
57107;SDS011;42987;52.916;6.542;2024-01-27T06:07:37;23.55;;;6.20;;
57107;SDS011;42987;52.916;6.542;2024-01-27T06:10:03;26.38;;;6.15;;
57107;SDS011;42987;52.916;6.542;2024-01-27T06:12:31;31.50;;;6.93;;
57107;SDS011;42987;52.916;6.542;2024-01-27T06:15:00;29.77;;;7.55;;
57107;SDS011;42987;52.916;6.542;2024-01-27T06:17:26;22.13;;;7.10;;
57107;SDS011;42987;52.916;6.542;2024-01-27T06:19:52;32.00;;;7.97;;
57107;SDS011;42987;52.916;6.542;2024-01-27T06:22:18;27.92;;;7.68;;
57107;SDS011;42987;52.916;6.542;2024-01-27T06:24:43;23.25;;;7.57;;
57107;SDS011;42987;52.916;6.542;2024-01-27T06:27:10;35.90;;;8.95;;
57107;SDS011;42987;52.916;6.542;2024-01-27T06:29:36;32.00;;;8.90;;
57107;SDS011;42987;52.916;6.542;2024-01-27T06:32:02;24.90;;;7.95;;
57107;SDS011;42987;52.916;6.542;2024-01-27T06:34:28;28.90;;;9.38;;
57107;SDS011;42987;52.916;6.542;2024-01-27T06:36:54;27.63;;;9.32;;
57107;SDS011;42987;52.916;6.542;2024-01-27T06:39:20;28.50;;;9.68;;
57107;SDS011;42987;52.916;6.542;2024-01-27T06:41:46;37.03;;;10.32;;
57107;SDS011;42987;52.916;6.542;2024-01-27T06:44:12;25.23;;;10.00;;
57107;SDS011;42987;52.916;6.542;2024-01-27T06:46:38;28.20;;;10.63;;
57107;SDS011;42987;52.916;6.542;2024-01-27T06:49:04;26.85;;;9.73;;
57107;SDS011;42987;52.916;6.542;2024-01-27T06:51:30;35.10;;;11.35;;
57107;SDS011;42987;52.916;6.542;2024-01-27T06:53:56;30.60;;;10.48;;
57107;SDS011;42987;52.916;6.542;2024-01-27T06:56:21;36.33;;;12.05;;
57107;SDS011;42987;52.916;6.542;2024-01-27T06:58:47;33.03;;;11.70;;
57107;SDS011;42987;52.916;6.542;2024-01-27T07:01:13;26.17;;;10.77;;
57107;SDS011;42987;52.916;6.542;2024-01-27T07:03:39;28.17;;;10.35;;
57107;SDS011;42987;52.916;6.542;2024-01-27T07:06:05;28.15;;;10.25;;
57107;SDS011;42987;52.916;6.542;2024-01-27T07:08:31;28.42;;;12.82;;
57107;SDS011;42987;52.916;6.542;2024-01-27T07:10:57;22.20;;;11.43;;
57107;SDS011;42987;52.916;6.542;2024-01-27T07:13:23;27.88;;;11.50;;
57107;SDS011;42987;52.916;6.542;2024-01-27T07:15:49;29.27;;;12.35;;
57107;SDS011;42987;52.916;6.542;2024-01-27T07:18:15;26.92;;;14.38;;
57107;SDS011;42987;52.916;6.542;2024-01-27T07:20:44;30.55;;;13.38;;
57107;SDS011;42987;52.916;6.542;2024-01-27T07:23:10;32.38;;;13.93;;
57107;SDS011;42987;52.916;6.542;2024-01-27T07:25:36;26.85;;;14.70;;
57107;SDS011;42987;52.916;6.542;2024-01-27T07:28:01;31.35;;;17.48;;
57107;SDS011;42987;52.916;6.542;2024-01-27T07:30:27;29.25;;;15.98;;
57107;SDS011;42987;52.916;6.542;2024-01-27T07:32:54;31.92;;;16.17;;
57107;SDS011;42987;52.916;6.542;2024-01-27T07:35:20;36.13;;;18.35;;
57107;SDS011;42987;52.916;6.542;2024-01-27T07:37:49;26.33;;;16.70;;
57107;SDS011;42987;52.916;6.542;2024-01-27T07:40:14;35.60;;;19.40;;
57107;SDS011;42987;52.916;6.542;2024-01-27T07:42:40;36.65;;;18.92;;
57107;SDS011;42987;52.916;6.542;2024-01-27T07:45:07;32.63;;;17.60;;
57107;SDS011;42987;52.916;6.542;2024-01-27T07:47:35;33.35;;;18.85;;
57107;SDS011;42987;52.916;6.542;2024-01-27T07:50:01;38.13;;;20.75;;
57107;SDS011;42987;52.916;6.542;2024-01-27T07:52:28;32.10;;;20.77;;
57107;SDS011;42987;52.916;6.542;2024-01-27T07:54:53;35.17;;;20.08;;
57107;SDS011;42987;52.916;6.542;2024-01-27T07:57:19;38.85;;;22.67;;
57107;SDS011;42987;52.916;6.542;2024-01-27T07:59:45;33.78;;;20.60;;
57107;SDS011;42987;52.916;6.542;2024-01-27T08:02:11;39.75;;;23.00;;
57107;SDS011;42987;52.916;6.542;2024-01-27T08:04:37;44.00;;;24.65;;
57107;SDS011;42987;52.916;6.542;2024-01-27T08:07:03;41.28;;;25.02;;
57107;SDS011;42987;52.916;6.542;2024-01-27T08:09:34;32.03;;;22.40;;
57107;SDS011;42987;52.916;6.542;2024-01-27T08:12:01;36.35;;;21.38;;
57107;SDS011;42987;52.916;6.542;2024-01-27T08:14:27;32.58;;;21.88;;
57107;SDS011;42987;52.916;6.542;2024-01-27T08:16:55;44.55;;;21.42;;
57107;SDS011;42987;52.916;6.542;2024-01-27T08:19:24;42.85;;;20.40;;
57107;SDS011;42987;52.916;6.542;2024-01-27T08:21:50;37.75;;;20.30;;
57107;SDS011;42987;52.916;6.542;2024-01-27T08:24:16;32.42;;;19.83;;
57107;SDS011;42987;52.916;6.542;2024-01-27T08:26:41;39.95;;;19.75;;
57107;SDS011;42987;52.916;6.542;2024-01-27T08:29:08;43.88;;;20.42;;
57107;SDS011;42987;52.916;6.542;2024-01-27T08:31:34;34.92;;;19.75;;
57107;SDS011;42987;52.916;6.542;2024-01-27T08:34:00;33.25;;;19.73;;
57107;SDS011;42987;52.916;6.542;2024-01-27T08:36:26;35.60;;;18.73;;
57107;SDS011;42987;52.916;6.542;2024-01-27T08:38:52;35.65;;;19.33;;
57107;SDS011;42987;52.916;6.542;2024-01-27T08:41:17;29.73;;;19.33;;
57107;SDS011;42987;52.916;6.542;2024-01-27T08:43:43;34.13;;;20.08;;
57107;SDS011;42987;52.916;6.542;2024-01-27T08:46:09;37.88;;;20.40;;
57107;SDS011;42987;52.916;6.542;2024-01-27T08:48:37;32.67;;;18.60;;
57107;SDS011;42987;52.916;6.542;2024-01-27T08:51:03;36.45;;;20.42;;
57107;SDS011;42987;52.916;6.542;2024-01-27T08:53:29;33.10;;;19.13;;
57107;SDS011;42987;52.916;6.542;2024-01-27T08:55:58;37.42;;;19.08;;
57107;SDS011;42987;52.916;6.542;2024-01-27T08:58:23;28.85;;;17.25;;
57107;SDS011;42987;52.916;6.542;2024-01-27T09:00:49;35.80;;;17.20;;
57107;SDS011;42987;52.916;6.542;2024-01-27T09:03:15;36.67;;;19.13;;
57107;SDS011;42987;52.916;6.542;2024-01-27T09:05:41;28.30;;;17.33;;
57107;SDS011;42987;52.916;6.542;2024-01-27T09:08:09;28.40;;;17.13;;
57107;SDS011;42987;52.916;6.542;2024-01-27T09:10:35;30.58;;;19.00;;
57107;SDS011;42987;52.916;6.542;2024-01-27T09:13:01;35.60;;;19.48;;
57107;SDS011;42987;52.916;6.542;2024-01-27T09:15:27;32.25;;;19.30;;
57107;SDS011;42987;52.916;6.542;2024-01-27T09:17:53;31.58;;;18.98;;
57107;SDS011;42987;52.916;6.542;2024-01-27T09:20:19;45.40;;;20.23;;
57107;SDS011;42987;52.916;6.542;2024-01-27T09:22:45;33.83;;;19.08;;
57107;SDS011;42987;52.916;6.542;2024-01-27T09:25:12;35.85;;;19.98;;
57107;SDS011;42987;52.916;6.542;2024-01-27T09:27:39;35.28;;;20.05;;
57107;SDS011;42987;52.916;6.542;2024-01-27T09:30:05;34.72;;;18.90;;
57107;SDS011;42987;52.916;6.542;2024-01-27T09:32:32;36.85;;;19.75;;
57107;SDS011;42987;52.916;6.542;2024-01-27T09:34:57;36.45;;;19.88;;
57107;SDS011;42987;52.916;6.542;2024-01-27T09:37:26;35.08;;;19.95;;
57107;SDS011;42987;52.916;6.542;2024-01-27T09:39:52;33.83;;;19.92;;
57107;SDS011;42987;52.916;6.542;2024-01-27T09:42:18;33.72;;;19.92;;
57107;SDS011;42987;52.916;6.542;2024-01-27T09:44:47;33.85;;;19.58;;
57107;SDS011;42987;52.916;6.542;2024-01-27T09:47:17;33.40;;;19.85;;
57107;SDS011;42987;52.916;6.542;2024-01-27T09:49:44;34.42;;;20.20;;
57107;SDS011;42987;52.916;6.542;2024-01-27T09:52:11;34.78;;;19.77;;
57107;SDS011;42987;52.916;6.542;2024-01-27T09:54:37;34.90;;;19.55;;
57107;SDS011;42987;52.916;6.542;2024-01-27T09:57:06;32.20;;;19.50;;
57107;SDS011;42987;52.916;6.542;2024-01-27T09:59:38;32.85;;;19.73;;
57107;SDS011;42987;52.916;6.542;2024-01-27T10:02:09;36.55;;;19.33;;
57107;SDS011;42987;52.916;6.542;2024-01-27T10:07:06;36.33;;;19.55;;
57107;SDS011;42987;52.916;6.542;2024-01-27T10:09:32;30.33;;;19.50;;
57107;SDS011;42987;52.916;6.542;2024-01-27T10:11:57;31.23;;;18.55;;
57107;SDS011;42987;52.916;6.542;2024-01-27T10:14:26;31.17;;;17.50;;
57107;SDS011;42987;52.916;6.542;2024-01-27T10:17:02;33.70;;;17.67;;
57107;SDS011;42987;52.916;6.542;2024-01-27T10:19:28;34.17;;;18.65;;
57107;SDS011;42987;52.916;6.542;2024-01-27T10:21:59;33.92;;;17.92;;
57107;SDS011;42987;52.916;6.542;2024-01-27T10:24:31;27.75;;;16.02;;
57107;SDS011;42987;52.916;6.542;2024-01-27T10:26:59;29.50;;;16.20;;
57107;SDS011;42987;52.916;6.542;2024-01-27T10:29:25;28.90;;;16.85;;
57107;SDS011;42987;52.916;6.542;2024-01-27T10:31:51;33.83;;;17.45;;
57107;SDS011;42987;52.916;6.542;2024-01-27T10:34:19;36.28;;;17.98;;
57107;SDS011;42987;52.916;6.542;2024-01-27T10:36:45;27.33;;;16.08;;
57107;SDS011;42987;52.916;6.542;2024-01-27T10:39:15;33.00;;;17.08;;
57107;SDS011;42987;52.916;6.542;2024-01-27T10:41:48;28.95;;;15.43;;
57107;SDS011;42987;52.916;6.542;2024-01-27T10:44:15;26.67;;;15.70;;
57107;SDS011;42987;52.916;6.542;2024-01-27T10:46:46;24.88;;;14.25;;
57107;SDS011;42987;52.916;6.542;2024-01-27T10:49:13;26.25;;;13.63;;
57107;SDS011;42987;52.916;6.542;2024-01-27T10:51:43;25.65;;;14.75;;
57107;SDS011;42987;52.916;6.542;2024-01-27T10:54:13;29.85;;;13.93;;
57107;SDS011;42987;52.916;6.542;2024-01-27T10:56:41;23.30;;;13.13;;
57107;SDS011;42987;52.916;6.542;2024-01-27T10:59:08;23.48;;;11.93;;
57107;SDS011;42987;52.916;6.542;2024-01-27T11:01:36;27.60;;;13.50;;
57107;SDS011;42987;52.916;6.542;2024-01-27T11:04:07;24.85;;;12.13;;
57107;SDS011;42987;52.916;6.542;2024-01-27T11:06:35;27.17;;;12.93;;
57107;SDS011;42987;52.916;6.542;2024-01-27T11:09:03;29.10;;;11.75;;
57107;SDS011;42987;52.916;6.542;2024-01-27T11:11:30;32.58;;;11.65;;
57107;SDS011;42987;52.916;6.542;2024-01-27T11:13:57;22.23;;;11.25;;
57107;SDS011;42987;52.916;6.542;2024-01-27T11:16:24;21.25;;;10.23;;
57107;SDS011;42987;52.916;6.542;2024-01-27T11:18:50;23.48;;;10.68;;
57107;SDS011;42987;52.916;6.542;2024-01-27T11:21:16;27.42;;;10.63;;
57107;SDS011;42987;52.916;6.542;2024-01-27T11:23:42;26.23;;;9.60;;
57107;SDS011;42987;52.916;6.542;2024-01-27T11:26:10;19.95;;;8.25;;
57107;SDS011;42987;52.916;6.542;2024-01-27T11:28:39;21.92;;;9.65;;
57107;SDS011;42987;52.916;6.542;2024-01-27T11:31:06;23.73;;;8.50;;
57107;SDS011;42987;52.916;6.542;2024-01-27T11:33:33;21.83;;;8.55;;
57107;SDS011;42987;52.916;6.542;2024-01-27T11:38:30;20.45;;;8.60;;
57107;SDS011;42987;52.916;6.542;2024-01-27T11:40:56;22.30;;;8.77;;
57107;SDS011;42987;52.916;6.542;2024-01-27T11:43:22;19.65;;;8.18;;
57107;SDS011;42987;52.916;6.542;2024-01-27T11:45:57;20.20;;;7.82;;
57107;SDS011;42987;52.916;6.542;2024-01-27T11:48:24;22.10;;;9.10;;
57107;SDS011;42987;52.916;6.542;2024-01-27T11:51:03;21.33;;;8.43;;
57107;SDS011;42987;52.916;6.542;2024-01-27T11:53:31;20.75;;;8.02;;
57107;SDS011;42987;52.916;6.542;2024-01-27T11:55:56;16.88;;;8.20;;
57107;SDS011;42987;52.916;6.542;2024-01-27T11:58:27;21.88;;;8.23;;
57107;SDS011;42987;52.916;6.542;2024-01-27T12:00:53;23.48;;;8.80;;
57107;SDS011;42987;52.916;6.542;2024-01-27T12:03:19;20.30;;;8.38;;
57107;SDS011;42987;52.916;6.542;2024-01-27T12:05:45;24.15;;;9.35;;
57107;SDS011;42987;52.916;6.542;2024-01-27T12:08:11;18.63;;;8.38;;
57107;SDS011;42987;52.916;6.542;2024-01-27T12:10:37;26.58;;;8.35;;
57107;SDS011;42987;52.916;6.542;2024-01-27T12:13:02;24.83;;;9.00;;
57107;SDS011;42987;52.916;6.542;2024-01-27T12:15:28;20.23;;;8.48;;
57107;SDS011;42987;52.916;6.542;2024-01-27T12:17:54;23.73;;;9.32;;
57107;SDS011;42987;52.916;6.542;2024-01-27T12:20:22;19.83;;;8.63;;
57107;SDS011;42987;52.916;6.542;2024-01-27T12:22:48;26.23;;;9.32;;
57107;SDS011;42987;52.916;6.542;2024-01-27T12:25:16;27.65;;;8.57;;
57107;SDS011;42987;52.916;6.542;2024-01-27T12:27:43;21.98;;;9.30;;
57107;SDS011;42987;52.916;6.542;2024-01-27T12:30:09;21.63;;;8.85;;
57107;SDS011;42987;52.916;6.542;2024-01-27T12:32:35;21.05;;;8.90;;
57107;SDS011;42987;52.916;6.542;2024-01-27T12:35:08;23.58;;;9.48;;
57107;SDS011;42987;52.916;6.542;2024-01-27T12:37:34;19.08;;;8.05;;
57107;SDS011;42987;52.916;6.542;2024-01-27T12:40:02;23.50;;;9.05;;
57107;SDS011;42987;52.916;6.542;2024-01-27T12:42:41;20.55;;;7.45;;
57107;SDS011;42987;52.916;6.542;2024-01-27T12:45:07;20.52;;;7.40;;
57107;SDS011;42987;52.916;6.542;2024-01-27T12:47:33;17.70;;;6.95;;
57107;SDS011;42987;52.916;6.542;2024-01-27T12:49:59;19.85;;;7.50;;
57107;SDS011;42987;52.916;6.542;2024-01-27T12:52:24;19.95;;;6.90;;
57107;SDS011;42987;52.916;6.542;2024-01-27T12:54:50;16.73;;;6.57;;
57107;SDS011;42987;52.916;6.542;2024-01-27T12:57:16;19.67;;;7.80;;
57107;SDS011;42987;52.916;6.542;2024-01-27T12:59:43;21.42;;;7.97;;
57107;SDS011;42987;52.916;6.542;2024-01-27T13:02:09;19.02;;;7.50;;
57107;SDS011;42987;52.916;6.542;2024-01-27T13:04:34;17.35;;;6.70;;
57107;SDS011;42987;52.916;6.542;2024-01-27T13:07:00;19.98;;;8.07;;
57107;SDS011;42987;52.916;6.542;2024-01-27T13:09:26;23.02;;;8.25;;
57107;SDS011;42987;52.916;6.542;2024-01-27T13:11:52;18.08;;;7.68;;
57107;SDS011;42987;52.916;6.542;2024-01-27T13:14:18;20.17;;;7.68;;
57107;SDS011;42987;52.916;6.542;2024-01-27T13:16:45;18.08;;;7.28;;
57107;SDS011;42987;52.916;6.542;2024-01-27T13:19:11;16.42;;;6.97;;
57107;SDS011;42987;52.916;6.542;2024-01-27T13:21:37;22.10;;;7.85;;
57107;SDS011;42987;52.916;6.542;2024-01-27T13:24:05;21.67;;;7.72;;
57107;SDS011;42987;52.916;6.542;2024-01-27T13:26:34;18.38;;;6.30;;
57107;SDS011;42987;52.916;6.542;2024-01-27T13:29:03;22.38;;;7.05;;
57107;SDS011;42987;52.916;6.542;2024-01-27T13:31:33;14.32;;;5.40;;
57107;SDS011;42987;52.916;6.542;2024-01-27T13:33:59;18.08;;;5.25;;
57107;SDS011;42987;52.916;6.542;2024-01-27T13:36:29;18.13;;;6.10;;
57107;SDS011;42987;52.916;6.542;2024-01-27T13:38:58;17.38;;;5.93;;
57107;SDS011;42987;52.916;6.542;2024-01-27T13:41:23;18.42;;;6.28;;
57107;SDS011;42987;52.916;6.542;2024-01-27T13:43:50;19.48;;;6.55;;
57107;SDS011;42987;52.916;6.542;2024-01-27T13:46:16;17.50;;;5.90;;
57107;SDS011;42987;52.916;6.542;2024-01-27T13:48:42;18.65;;;6.15;;
57107;SDS011;42987;52.916;6.542;2024-01-27T13:51:08;18.85;;;5.57;;
57107;SDS011;42987;52.916;6.542;2024-01-27T13:53:34;19.48;;;6.57;;
57107;SDS011;42987;52.916;6.542;2024-01-27T13:55:59;16.73;;;5.88;;
57107;SDS011;42987;52.916;6.542;2024-01-27T13:58:29;18.10;;;6.55;;
57107;SDS011;42987;52.916;6.542;2024-01-27T14:00:55;17.75;;;6.00;;
57107;SDS011;42987;52.916;6.542;2024-01-27T14:03:21;21.50;;;7.28;;
57107;SDS011;42987;52.916;6.542;2024-01-27T14:05:48;15.50;;;5.78;;
57107;SDS011;42987;52.916;6.542;2024-01-27T14:08:14;21.20;;;6.88;;
57107;SDS011;42987;52.916;6.542;2024-01-27T14:10:40;18.17;;;6.70;;
57107;SDS011;42987;52.916;6.542;2024-01-27T14:13:08;20.75;;;7.45;;
57107;SDS011;42987;52.916;6.542;2024-01-27T14:15:34;19.08;;;7.78;;
57107;SDS011;42987;52.916;6.542;2024-01-27T14:18:01;15.30;;;6.78;;
57107;SDS011;42987;52.916;6.542;2024-01-27T14:20:29;19.85;;;7.50;;
57107;SDS011;42987;52.916;6.542;2024-01-27T14:22:55;20.42;;;7.80;;
57107;SDS011;42987;52.916;6.542;2024-01-27T14:25:23;18.65;;;6.88;;
57107;SDS011;42987;52.916;6.542;2024-01-27T14:27:48;19.98;;;7.07;;
57107;SDS011;42987;52.916;6.542;2024-01-27T14:30:14;22.02;;;7.30;;
57107;SDS011;42987;52.916;6.542;2024-01-27T14:32:40;19.38;;;6.90;;